Time;durP1;ratioP1;P1;durP2;ratioP2;P2;SDS_P1;SDS_P2;PMS_P1;PMS_P2;Temp;Humidity;BMP_temperature;BMP_pressure;BME280_temperature;BME280_humidity;BME280_pressure;Samples;Min_cycle;Max_cycle;Signal;HPM_P1;HPM_P2
2022/10/24 00:01:48;;;;;;;7.20;2.55;;;;;;;14.74;100.00;100209.84;5090265;28;20038;-71
2022/10/24 00:04:13;;;;;;;11.27;2.40;;;;;;;14.71;100.00;100203.00;5092479;28;20055;-71
2022/10/24 00:06:40;;;;;;;9.00;2.30;;;;;;;14.69;100.00;100202.47;5090642;28;20024;-71
2022/10/24 00:09:06;;;;;;;11.80;2.40;;;;;;;14.69;100.00;100207.13;5090430;28;20081;-71
2022/10/24 00:11:32;;;;;;;9.25;2.30;;;;;;;14.67;100.00;100201.94;5093899;28;20036;-71
2022/10/24 00:13:58;;;;;;;8.40;2.30;;;;;;;14.66;100.00;100197.56;5096376;28;20039;-71
2022/10/24 00:16:25;;;;;;;7.90;2.50;;;;;;;14.67;100.00;100199.22;5089582;28;20025;-71
2022/10/24 00:18:50;;;;;;;9.52;3.03;;;;;;;14.64;100.00;100194.28;5082399;28;20043;-71
2022/10/24 00:21:16;;;;;;;9.00;2.30;;;;;;;14.66;100.00;100205.72;5075987;28;20040;-71
2022/10/24 00:23:41;;;;;;;10.90;2.42;;;;;;;14.68;100.00;100198.09;5076425;28;20024;-71
2022/10/24 00:26:06;;;;;;;12.40;2.38;;;;;;;14.65;100.00;100201.38;5096678;28;20374;-72
2022/10/24 00:28:33;;;;;;;11.68;2.63;;;;;;;14.64;100.00;100198.91;5116992;28;20051;-72
2022/10/24 00:30:59;;;;;;;7.35;2.00;;;;;;;14.66;100.00;100194.84;5094971;28;20175;-72
2022/10/24 00:33:24;;;;;;;8.75;2.40;;;;;;;14.69;100.00;100193.50;5082611;28;20085;-71
2022/10/24 00:35:50;;;;;;;7.90;2.30;;;;;;;14.64;100.00;100193.47;5089618;28;20147;-78
2022/10/24 00:38:15;;;;;;;11.18;2.50;;;;;;;14.67;100.00;100193.75;5077386;28;20054;-73
2022/10/24 00:40:41;;;;;;;7.97;2.15;;;;;;;14.68;100.00;100200.03;5075601;28;20044;-72
2022/10/24 00:43:17;;;;;;;6.97;2.40;;;;;;;14.65;100.00;100193.19;5075632;28;20029;-72
2022/10/24 00:45:44;;;;;;;10.35;2.25;;;;;;;14.65;100.00;100189.66;5077968;28;20026;-73
2022/10/24 00:48:51;;;;;;;5.70;2.20;;;;;;;14.66;100.00;100191.28;5084360;28;20039;-72
2022/10/24 00:51:23;;;;;;;6.60;2.05;;;;;;;14.59;100.00;100183.34;5074216;28;20460;-72
2022/10/24 00:53:51;;;;;;;8.95;2.30;;;;;;;14.61;100.00;100191.28;5075197;28;20083;-73
2022/10/24 00:56:20;;;;;;;9.32;2.40;;;;;;;14.62;100.00;100179.31;5081071;28;20020;-72
2022/10/24 00:58:47;;;;;;;11.57;2.50;;;;;;;14.59;100.00;100174.38;5088549;28;20085;-73
2022/10/24 01:01:13;;;;;;;8.45;2.10;;;;;;;14.60;100.00;100187.72;5091847;28;20028;-72
2022/10/24 01:03:38;;;;;;;9.30;2.88;;;;;;;14.59;100.00;100177.91;5095337;28;20348;-73
2022/10/24 01:06:25;;;;;;;13.02;2.92;;;;;;;14.63;100.00;100179.03;5093990;28;20072;-72
2022/10/24 01:09:09;;;;;;;6.00;2.58;;;;;;;14.60;100.00;100171.38;5075048;28;20055;-73
2022/10/24 01:12:00;;;;;;;10.07;2.58;;;;;;;14.59;100.00;100186.06;5075248;28;20029;-72
2022/10/24 01:14:52;;;;;;;13.77;2.83;;;;;;;14.61;100.00;100169.50;5075287;28;20035;-72
2022/10/24 01:17:42;;;;;;;9.45;2.78;;;;;;;14.62;100.00;100173.88;5081984;28;20042;-73
2022/10/24 01:20:44;;;;;;;14.02;3.10;;;;;;;14.60;100.00;100173.25;5089203;28;20104;-72
2022/10/24 01:23:34;;;;;;;;;;;;;;;14.65;100.00;100168.69;5073227;28;20448;-73
2022/10/24 01:26:17;;;;;;;9.45;3.10;;;;;;;14.58;100.00;100159.13;5072960;28;19915;-72
2022/10/24 01:28:59;;;;;;;7.05;2.25;;;;;;;14.54;100.00;100165.09;5091130;28;20151;-73
2022/10/24 01:31:44;;;;;;;9.52;2.88;;;;;;;14.59;100.00;100163.47;5095133;28;20042;-72
2022/10/24 01:34:34;;;;;;;10.48;2.67;;;;;;;14.57;100.00;100171.91;5095073;28;20459;-72
2022/10/24 01:37:22;;;;;;;9.27;2.50;;;;;;;14.54;100.00;100164.28;5091693;28;20032;-73
2022/10/24 01:39:52;;;;;;;7.88;2.40;;;;;;;14.59;100.00;100169.72;5092632;28;20039;-72
2022/10/24 01:42:22;;;;;;;6.30;2.15;;;;;;;14.62;100.00;100158.34;5094843;28;20461;-72
2022/10/24 01:44:52;;;;;;;11.80;2.57;;;;;;;14.63;100.00;100159.97;5094904;28;20055;-72
2022/10/24 01:47:21;;;;;;;9.13;2.30;;;;;;;14.66;100.00;100154.00;5092634;28;20277;-73
2022/10/24 01:49:52;;;;;;;8.02;2.30;;;;;;;14.69;100.00;100153.47;5089352;28;20054;-73
2022/10/24 01:52:18;;;;;;;6.15;2.33;;;;;;;14.71;100.00;100159.44;5074209;28;20024;-72
2022/10/24 01:54:46;;;;;;;9.02;2.50;;;;;;;14.69;100.00;100148.00;5074276;28;20032;-72
2022/10/24 01:57:12;;;;;;;4.70;1.92;;;;;;;14.71;100.00;100148.53;5078578;28;20608;-72
2022/10/24 01:59:42;;;;;;;6.20;2.58;;;;;;;14.76;100.00;100146.94;5094652;28;20178;-72
2022/10/24 02:02:16;;;;;;;9.77;2.53;;;;;;;14.84;100.00;100146.38;5090769;28;20024;-72
2022/10/24 02:04:58;;;;;;;13.18;2.30;;;;;;;14.83;100.00;100142.84;5094286;28;20485;-72
2022/10/24 02:07:26;;;;;;;13.10;2.47;;;;;;;14.81;100.00;100149.66;5091296;28;20503;-72
2022/10/24 02:09:59;;;;;;;7.30;2.17;;;;;;;14.82;100.00;100151.28;5092890;28;20028;-72
2022/10/24 02:12:26;;;;;;;10.70;2.22;;;;;;;14.88;100.00;100152.94;5094408;28;20028;-72
2022/10/24 02:14:56;;;;;;;6.53;2.47;;;;;;;14.88;100.00;100147.47;5092768;28;20034;-73
2022/10/24 02:17:22;;;;;;;10.82;2.38;;;;;;;14.84;100.00;100140.94;5088811;28;20451;-73
2022/10/24 02:19:48;;;;;;;6.55;2.15;;;;;;;14.87;100.00;100148.56;5081399;28;20031;-72
2022/10/24 02:22:22;;;;;;;9.25;2.28;;;;;;;14.91;100.00;100149.66;5073911;28;20044;-73
2022/10/24 02:24:59;;;;;;;9.73;2.40;;;;;;;14.91;100.00;100141.50;5072361;28;20024;-72
2022/10/24 02:27:31;;;;;;;5.72;1.70;;;;;;;14.92;100.00;100148.59;5083063;28;20043;-72
2022/10/24 02:30:05;;;;;;;6.32;2.60;;;;;;;14.92;100.00;100154.03;5082478;28;20032;-73
2022/10/24 02:32:37;;;;;;;9.50;2.00;;;;;;;14.93;100.00;100146.66;5073625;28;20032;-72
2022/10/24 02:35:05;;;;;;;6.00;2.10;;;;;;;14.92;100.00;100140.41;5075677;28;20028;-72
2022/10/24 02:37:33;;;;;;;16.33;2.33;;;;;;;14.91;100.00;100148.84;5092408;28;20027;-73
2022/10/24 02:40:00;;;;;;;8.52;1.90;;;;;;;14.86;100.00;100155.13;5093916;28;20085;-72
2022/10/24 02:42:27;;;;;;;9.10;2.10;;;;;;;14.87;100.00;100143.13;5093839;28;20019;-72
2022/10/24 02:44:54;;;;;;;5.43;2.00;;;;;;;14.89;100.00;100158.09;5091814;28;20486;-72
2022/10/24 02:47:21;;;;;;;9.65;2.28;;;;;;;14.92;100.00;100150.50;5092548;28;20040;-72
2022/10/24 02:49:46;;;;;;;9.30;1.83;;;;;;;14.96;100.00;100149.69;5093482;28;20031;-72
2022/10/24 02:52:12;;;;;;;9.30;2.05;;;;;;;14.95;100.00;100156.22;5093674;28;20023;-72
2022/10/24 02:54:37;;;;;;;6.15;1.83;;;;;;;15.01;98.91;100152.41;5093359;28;20038;-72
2022/10/24 02:57:03;;;;;;;6.40;1.85;;;;;;;15.06;99.02;100149.66;5092071;28;20047;-72
2022/10/24 02:59:28;;;;;;;7.32;1.88;;;;;;;15.05;100.00;100150.78;5092179;28;20050;-72
2022/10/24 03:01:54;;;;;;;7.80;2.03;;;;;;;15.04;100.00;100149.13;5090658;28;20026;-72
2022/10/24 03:04:19;;;;;;;5.72;1.77;;;;;;;15.07;98.64;100148.59;5091767;28;20055;-73
2022/10/24 03:06:45;;;;;;;10.25;2.05;;;;;;;15.01;100.00;100149.69;5091365;28;20028;-73
2022/10/24 03:09:10;;;;;;;7.13;1.98;;;;;;;15.04;99.67;100157.31;5092036;28;20028;-72
2022/10/24 03:11:35;;;;;;;9.10;1.90;;;;;;;15.05;99.62;100156.22;5093304;28;20073;-73
2022/10/24 03:14:00;;;;;;;6.38;2.30;;;;;;;15.09;96.80;100156.50;5090369;28;20090;-72
2022/10/24 03:16:27;;;;;;;7.88;1.70;;;;;;;15.07;99.12;100153.22;5080662;28;20119;-73
2022/10/24 03:18:53;;;;;;;9.15;1.90;;;;;;;15.09;95.96;100151.03;5092838;28;20099;-72
2022/10/24 03:21:18;;;;;;;6.18;1.88;;;;;;;15.12;96.53;100155.13;5080851;28;20459;-72
2022/10/24 03:23:43;;;;;;;8.90;1.80;;;;;;;15.12;94.79;100141.50;5086236;28;20077;-73
2022/10/24 03:26:09;;;;;;;9.55;1.90;;;;;;;15.10;97.07;100151.84;5087709;28;20027;-73
2022/10/24 03:28:37;;;;;;;5.82;1.83;;;;;;;15.06;98.84;100146.13;5083522;28;20028;-78
2022/10/24 03:31:06;;;;;;;12.27;1.60;;;;;;;15.02;98.72;100151.31;5088020;28;20153;-73
2022/10/24 03:33:31;;;;;;;11.68;2.33;;;;;;;15.01;99.14;100155.13;5092311;28;20038;-73
2022/10/24 03:35:56;;;;;;;7.75;1.80;;;;;;;15.00;98.83;100145.31;5086313;28;20032;-73
2022/10/24 03:38:22;;;;;;;5.40;1.90;;;;;;;14.97;100.00;100148.56;5092931;28;20024;-73
2022/10/24 03:40:48;;;;;;;7.40;1.80;;;;;;;14.94;100.00;100142.88;5092087;28;20404;-73
2022/10/24 03:43:13;;;;;;;9.20;2.40;;;;;;;14.98;100.00;100146.69;5077082;28;20471;-73
2022/10/24 03:45:39;;;;;;;6.60;1.85;;;;;;;14.95;100.00;100133.63;5078347;28;20103;-73
2022/10/24 03:48:05;;;;;;;8.05;2.33;;;;;;;14.95;100.00;100134.41;5073214;28;20104;-73
2022/10/24 03:50:32;;;;;;;8.07;2.10;;;;;;;14.94;100.00;100131.97;5102208;28;20027;-73
2022/10/24 03:52:58;;;;;;;11.73;2.20;;;;;;;14.94;100.00;100132.78;5108339;28;20035;-73
2022/10/24 03:55:24;;;;;;;6.35;1.98;;;;;;;14.98;100.00;100133.06;5090704;28;20031;-73
2022/10/24 03:57:49;;;;;;;8.32;1.90;;;;;;;14.96;100.00;100121.59;5076617;28;20024;-73
2022/10/24 04:00:14;;;;;;;7.93;2.50;;;;;;;15.04;98.52;100132.78;5092262;28;20085;-73
2022/10/24 04:02:40;;;;;;;10.73;2.28;;;;;;;15.03;100.00;100135.78;5076729;28;20036;-73
2022/10/24 04:05:07;;;;;;;4.63;1.77;;;;;;;15.05;99.96;100134.44;5086145;28;20142;-73
2022/10/24 04:07:32;;;;;;;8.65;1.90;;;;;;;15.10;97.44;100144.50;5092247;28;20024;-73
2022/10/24 04:09:57;;;;;;;8.73;1.92;;;;;;;15.09;98.24;100144.78;5092297;28;20072;-73
2022/10/24 04:12:24;;;;;;;7.45;1.70;;;;;;;15.07;98.58;100145.84;5090575;28;20111;-73
2022/10/24 04:14:49;;;;;;;7.13;2.03;;;;;;;15.11;97.38;100142.59;5073454;28;20036;-73
2022/10/24 04:17:14;;;;;;;7.82;1.80;;;;;;;15.09;100.00;100136.59;5072530;28;20028;-73
2022/10/24 04:19:40;;;;;;;7.53;1.92;;;;;;;15.09;98.54;100134.69;5075452;28;20097;-73
2022/10/24 04:22:05;;;;;;;9.82;2.13;;;;;;;15.09;98.79;100128.44;5090479;28;20367;-73
2022/10/24 04:24:30;;;;;;;6.32;2.03;;;;;;;15.09;96.96;100125.72;5089293;28;20020;-73
2022/10/24 04:26:56;;;;;;;6.20;1.80;;;;;;;15.07;97.22;100128.69;5086080;28;20040;-73
2022/10/24 04:29:21;;;;;;;5.70;1.70;;;;;;;15.07;97.84;100137.69;5086875;28;20056;-73
2022/10/24 04:31:46;;;;;;;4.90;1.98;;;;;;;15.03;99.91;100133.88;5073967;28;20038;-73
2022/10/24 04:34:12;;;;;;;6.07;1.70;;;;;;;15.07;95.81;100134.97;5071944;28;20106;-73
2022/10/24 04:36:37;;;;;;;8.30;2.17;;;;;;;15.05;97.30;100128.13;5070952;28;20162;-73
2022/10/24 04:39:04;;;;;;;4.07;1.35;;;;;;;15.04;96.73;100129.25;5082455;28;20028;-73
2022/10/24 04:41:30;;;;;;;9.55;1.85;;;;;;;15.06;95.28;100127.88;5087910;28;20465;-73
2022/10/24 04:43:55;;;;;;;8.50;1.73;;;;;;;15.05;95.05;100128.97;5070167;28;20107;-73
2022/10/24 04:46:20;;;;;;;6.90;1.85;;;;;;;15.07;95.09;100129.50;5071606;28;20585;-73
2022/10/24 04:48:46;;;;;;;8.50;1.52;;;;;;;15.03;98.95;100128.41;5070621;28;20410;-73
2022/10/24 04:51:11;;;;;;;11.13;2.00;;;;;;;15.11;94.95;100131.69;5090444;28;20054;-73
2022/10/24 04:53:37;;;;;;;11.35;2.20;;;;;;;15.11;96.29;100134.41;5090616;28;20028;-73
2022/10/24 04:56:02;;;;;;;8.85;1.98;;;;;;;15.14;95.27;100131.13;5088813;28;20038;-73
2022/10/24 04:58:28;;;;;;;9.60;1.85;;;;;;;15.16;96.18;100135.25;5089471;28;20024;-73
2022/10/24 05:00:53;;;;;;;6.68;1.92;;;;;;;15.19;94.71;100128.44;5091622;28;20439;-73
2022/10/24 05:03:19;;;;;;;12.30;3.03;;;;;;;15.16;97.21;100129.78;5074993;28;20031;-73
2022/10/24 05:05:45;;;;;;;9.32;1.90;;;;;;;15.14;100.00;100125.69;5075353;28;20036;-73
2022/10/24 05:08:11;;;;;;;7.63;1.75;;;;;;;15.12;100.00;100134.13;5075211;28;20079;-73
2022/10/24 05:10:36;;;;;;;7.80;1.98;;;;;;;15.12;97.53;100127.88;5075297;28;20415;-73
2022/10/24 05:13:01;;;;;;;10.55;1.65;;;;;;;15.13;98.32;100141.25;5087527;28;20085;-73
2022/10/24 05:15:28;;;;;;;8.10;2.05;;;;;;;15.11;99.29;100142.59;5095506;28;20451;-73
2022/10/24 05:17:54;;;;;;;12.05;2.10;;;;;;;15.11;99.96;100137.13;5095270;28;20467;-73
2022/10/24 05:20:19;;;;;;;7.25;1.98;;;;;;;15.09;100.00;100139.31;5095222;28;20031;-73
2022/10/24 05:22:45;;;;;;;9.93;2.30;;;;;;;15.10;100.00;100144.50;5091812;28;20028;-73
2022/10/24 05:25:10;;;;;;;8.35;2.17;;;;;;;15.09;100.00;100151.03;5095041;28;20553;-73
2022/10/24 05:27:35;;;;;;;7.93;2.30;;;;;;;15.11;100.00;100148.03;5095261;28;20393;-73
2022/10/24 05:30:01;;;;;;;8.48;2.40;;;;;;;15.10;100.00;100166.31;5094967;28;20035;-73
2022/10/24 05:32:26;;;;;;;8.73;2.30;;;;;;;15.13;100.00;100156.78;5084435;28;20075;-73
2022/10/24 05:34:51;;;;;;;9.48;2.38;;;;;;;15.13;100.00;100159.50;5073692;28;20374;-73
2022/10/24 05:37:17;;;;;;;11.43;2.97;;;;;;;15.17;100.00;100149.66;5074739;28;20025;-73
2022/10/24 05:39:42;;;;;;;9.32;1.92;;;;;;;15.22;100.00;100163.31;5074715;28;20051;-73
2022/10/24 05:42:09;;;;;;;7.57;2.28;;;;;;;15.21;100.00;100165.19;5079681;28;20028;-73
2022/10/24 05:44:35;;;;;;;28.33;2.63;;;;;;;15.23;100.00;100173.09;5077328;28;20410;-73
2022/10/24 05:47:00;;;;;;;9.70;2.20;;;;;;;15.20;100.00;100157.28;5075484;28;20028;-72
2022/10/24 05:49:25;;;;;;;7.60;1.88;;;;;;;15.30;97.16;100165.47;5074487;28;20020;-72
2022/10/24 05:51:51;;;;;;;9.90;2.13;;;;;;;15.26;98.65;100161.66;5088271;28;20035;-72
2022/10/24 05:54:16;;;;;;;8.07;2.08;;;;;;;15.24;100.00;100169.31;5089592;28;20020;-73
2022/10/24 05:56:41;;;;;;;9.50;2.05;;;;;;;15.23;100.00;100162.19;5081224;28;20051;-72
2022/10/24 05:59:07;;;;;;;8.38;2.22;;;;;;;15.20;100.00;100158.13;5081701;28;20032;-73
2022/10/24 06:01:33;;;;;;;9.75;2.33;;;;;;;15.20;100.00;100152.69;5090363;28;20471;-72
2022/10/24 06:03:58;;;;;;;11.50;2.42;;;;;;;15.20;100.00;100184.56;5091398;28;20031;-72
2022/10/24 06:06:24;;;;;;;9.18;2.15;;;;;;;15.18;100.00;100164.94;5094513;28;20019;-74
2022/10/24 06:08:50;;;;;;;12.32;2.50;;;;;;;15.15;100.00;100176.38;5094005;28;20024;-76
2022/10/24 06:11:16;;;;;;;11.02;2.13;;;;;;;15.17;99.88;100179.66;5093413;28;20426;-72
2022/10/24 06:13:41;;;;;;;12.93;2.58;;;;;;;15.12;100.00;100164.13;5076727;28;20128;-71
2022/10/24 06:16:09;;;;;;;10.32;2.38;;;;;;;15.14;100.00;100174.75;5075828;28;20025;-70
2022/10/24 06:18:35;;;;;;;13.40;2.40;;;;;;;15.11;100.00;100181.53;5074077;28;20028;-72
2022/10/24 06:21:02;;;;;;;10.82;2.80;;;;;;;15.13;100.00;100186.75;5073714;28;20044;-71
2022/10/24 06:23:28;;;;;;;9.20;2.13;;;;;;;15.09;100.00;100172.84;5077064;28;20035;-73
2022/10/24 06:25:54;;;;;;;10.75;2.30;;;;;;;15.08;100.00;100193.00;5092874;28;20035;-71
2022/10/24 06:28:19;;;;;;;11.80;2.58;;;;;;;15.09;100.00;100188.38;5093992;28;20020;-70
2022/10/24 06:30:47;;;;;;;8.40;2.33;;;;;;;15.04;100.00;100175.56;5093541;28;20142;-70
2022/10/24 06:33:13;;;;;;;9.95;2.55;;;;;;;15.02;100.00;100184.00;5091216;28;20367;-71
2022/10/24 06:35:38;;;;;;;10.18;2.15;;;;;;;15.04;100.00;100181.81;5094015;28;20028;-70
2022/10/24 06:38:04;;;;;;;10.90;2.03;;;;;;;15.01;100.00;100192.47;5092349;28;20582;-71
2022/10/24 06:40:29;;;;;;;8.80;2.08;;;;;;;14.99;100.00;100195.47;5092340;28;20020;-71
2022/10/24 06:42:55;;;;;;;11.25;2.20;;;;;;;14.96;100.00;100196.00;5082635;28;20024;-71
2022/10/24 06:45:20;;;;;;;8.70;2.40;;;;;;;14.97;100.00;100202.25;5073428;28;20425;-71
2022/10/24 06:47:46;;;;;;;12.07;2.30;;;;;;;14.97;100.00;100211.25;5073363;28;20024;-71
2022/10/24 06:50:11;;;;;;;12.93;2.83;;;;;;;14.98;100.00;100215.59;5073535;28;20036;-71
2022/10/24 06:52:36;;;;;;;10.10;2.38;;;;;;;15.03;100.00;100218.31;5081000;28;20023;-71
2022/10/24 06:55:02;;;;;;;12.65;2.70;;;;;;;15.04;100.00;100217.25;5093356;28;20024;-71
2022/10/24 06:57:27;;;;;;;11.40;2.30;;;;;;;15.01;100.00;100225.97;5093527;28;20024;-71
2022/10/24 06:59:52;;;;;;;8.60;2.30;;;;;;;15.06;100.00;100241.50;5093468;28;20035;-71
2022/10/24 07:02:18;;;;;;;11.10;2.30;;;;;;;15.06;100.00;100231.41;5088460;28;20012;-70
2022/10/24 07:04:43;;;;;;;13.35;2.45;;;;;;;15.05;100.00;100232.53;5093486;28;20405;-70
2022/10/24 07:07:18;;;;;;;11.85;2.33;;;;;;;14.98;100.00;100226.50;5082880;28;20027;-75
2022/10/24 07:09:44;;;;;;;13.40;2.67;;;;;;;14.95;100.00;100229.78;5073122;28;20469;-70
2022/10/24 07:12:09;;;;;;;12.07;2.58;;;;;;;14.90;100.00;100235.22;5076700;28;20055;-73
2022/10/24 07:14:35;;;;;;;18.38;3.60;;;;;;;14.85;100.00;100236.00;5107565;28;20051;-71
2022/10/24 07:17:00;;;;;;;13.23;2.85;;;;;;;14.79;100.00;100236.25;5117188;28;20046;-71
2022/10/24 07:19:26;;;;;;;13.20;2.42;;;;;;;14.74;100.00;100230.81;5091440;28;20052;-71
2022/10/24 07:21:51;;;;;;;12.07;2.40;;;;;;;14.68;100.00;100244.41;5103848;28;20075;-72
2022/10/24 07:24:16;;;;;;;10.98;2.72;;;;;;;14.68;100.00;100255.28;5088073;28;20452;-73
2022/10/24 07:26:41;;;;;;;16.05;2.80;;;;;;;14.71;100.00;100262.13;5091276;28;20036;-73
2022/10/24 07:29:07;;;;;;;11.40;2.55;;;;;;;14.73;100.00;100268.09;5091230;28;20120;-73
2022/10/24 07:31:34;;;;;;;14.98;2.22;;;;;;;14.75;100.00;100271.41;5092102;28;20024;-73
2022/10/24 07:34:01;;;;;;;12.70;2.75;;;;;;;14.78;100.00;100268.13;5074598;28;20104;-73
2022/10/24 07:36:29;;;;;;;15.02;2.78;;;;;;;14.82;100.00;100265.69;5072228;28;20475;-73
2022/10/24 07:38:56;;;;;;;12.00;2.40;;;;;;;14.84;100.00;100277.97;5072777;28;20448;-73
2022/10/24 07:41:23;;;;;;;12.40;2.92;;;;;;;14.92;100.00;100268.44;5072397;28;20029;-73
2022/10/24 07:43:48;;;;;;;11.93;2.58;;;;;;;14.90;100.00;100257.00;5088319;28;20020;-73
2022/10/24 07:46:15;;;;;;;10.82;2.40;;;;;;;14.98;100.00;100269.28;5091519;28;20366;-73
2022/10/24 07:48:41;;;;;;;13.45;2.45;;;;;;;15.02;100.00;100282.09;5092711;28;20016;-73
2022/10/24 07:51:12;;;;;;;9.52;2.40;;;;;;;15.06;100.00;100304.97;5092193;28;20024;-72
2022/10/24 07:53:38;;;;;;;;;;;;;;;15.12;100.00;100313.19;5092049;28;20050;-72
2022/10/24 07:56:07;;;;;;;10.70;2.15;;;;;;;15.15;100.00;100304.47;5080109;28;19916;-73
2022/10/24 07:58:32;;;;;;;13.18;2.20;;;;;;;15.14;100.00;100311.00;5088454;28;20024;-71
2022/10/24 08:01:09;;;;;;;11.52;2.53;;;;;;;15.24;100.00;100316.47;5089628;28;20031;-73
2022/10/24 08:03:35;;;;;;;10.32;2.67;;;;;;;15.20;100.00;100318.09;5090679;28;20012;-72
2022/10/24 08:06:04;;;;;;;9.68;2.13;;;;;;;15.15;100.00;100326.28;5092186;28;20161;-73
2022/10/24 08:08:29;;;;;;;14.15;2.17;;;;;;;15.15;100.00;100315.38;5091996;28;20032;-72
2022/10/24 08:10:54;;;;;;;10.82;2.10;;;;;;;15.16;100.00;100330.66;5092141;28;20024;-72
2022/10/24 08:13:20;;;;;;;6.75;2.20;;;;;;;15.18;100.00;100326.53;5088675;28;20854;-72
2022/10/24 08:15:45;;;;;;;11.73;2.47;;;;;;;15.21;100.00;100344.28;5091703;28;20392;-72
2022/10/24 08:18:10;;;;;;;11.45;2.28;;;;;;;15.22;100.00;100340.47;5090538;28;20107;-72
2022/10/24 08:20:36;;;;;;;9.30;2.30;;;;;;;15.22;100.00;100344.00;5091916;28;20043;-72
2022/10/24 08:23:01;;;;;;;10.02;2.35;;;;;;;15.28;100.00;100357.63;5082193;28;20067;-72
2022/10/24 08:25:26;;;;;;;10.98;2.33;;;;;;;15.37;100.00;100353.31;5071816;28;20021;-75
2022/10/24 08:27:51;;;;;;;14.93;2.55;;;;;;;15.41;100.00;100357.13;5072381;28;20040;-74
2022/10/24 08:30:19;;;;;;;10.43;2.35;;;;;;;15.44;100.00;100348.41;5091570;28;20336;-71
2022/10/24 08:32:44;;;;;;;8.88;2.50;;;;;;;15.42;100.00;100359.59;5092910;28;20047;-74
2022/10/24 08:35:15;;;;;;;12.35;2.22;;;;;;;15.41;100.00;100346.22;5095381;28;20447;-71
2022/10/24 08:37:40;;;;;;;14.95;2.50;;;;;;;15.41;100.00;100360.69;5084885;28;20111;-73
2022/10/24 08:40:08;;;;;;;10.55;2.22;;;;;;;15.35;100.00;100353.59;5079655;28;20115;-72
2022/10/24 08:42:34;;;;;;;14.48;2.95;;;;;;;15.29;100.00;100360.09;5074082;28;20482;-71
2022/10/24 08:45:01;;;;;;;8.02;2.40;;;;;;;15.27;100.00;100365.00;5075720;28;20028;-71
2022/10/24 08:47:48;;;;;;;10.80;2.70;;;;;;;15.26;100.00;100363.34;5075406;28;20359;-71
2022/10/24 08:50:22;;;;;;;9.70;2.28;;;;;;;15.29;100.00;100372.91;5082496;28;20028;-71
2022/10/24 08:52:56;;;;;;;9.73;2.40;;;;;;;15.31;100.00;100366.13;5092508;28;20109;-71
2022/10/24 08:55:27;;;;;;;9.32;2.30;;;;;;;15.36;100.00;100363.41;5094218;28;20035;-72
2022/10/24 08:58:00;;;;;;;14.23;2.15;;;;;;;15.44;100.00;100363.97;5078378;28;20372;-71
2022/10/24 09:00:30;;;;;;;9.68;2.38;;;;;;;15.47;100.00;100361.50;5088377;28;20024;-71
2022/10/24 09:03:25;;;;;;;6.57;2.00;;;;;;;15.52;100.00;100371.59;5094398;28;20028;-70
2022/10/24 09:05:54;;;;;;;9.40;2.42;;;;;;;15.55;100.00;100371.91;5095638;28;20463;-71
2022/10/24 09:08:44;;;;;;;10.75;2.22;;;;;;;15.62;98.83;100368.09;5087186;28;20024;-71
2022/10/24 09:11:15;;;;;;;12.50;2.35;;;;;;;15.62;99.92;100359.91;5073492;28;20197;-71
2022/10/24 09:13:40;;;;;;;8.45;1.90;;;;;;;15.70;96.38;100368.38;5075219;28;20352;-71
2022/10/24 09:16:13;;;;;;;9.95;2.30;;;;;;;15.74;97.28;100372.19;5074722;28;20029;-71
2022/10/24 09:18:42;;;;;;;12.98;2.80;;;;;;;15.74;98.91;100385.00;5074284;28;20173;-71
2022/10/24 09:21:12;;;;;;;15.10;3.10;;;;;;;15.80;95.86;100377.69;5093890;28;20044;-71
2022/10/24 09:23:37;;;;;;;15.23;2.63;;;;;;;15.80;97.51;100388.59;5095225;28;20027;-70
2022/10/24 09:26:06;;;;;;;11.82;2.40;;;;;;;15.89;93.91;100395.16;5094830;28;20020;-71
2022/10/24 09:28:36;;;;;;;8.65;2.25;;;;;;;15.87;94.40;100391.88;5084109;28;20052;-74
2022/10/24 09:31:12;;;;;;;10.50;2.40;;;;;;;15.96;91.95;100392.97;5077028;28;20111;-70
2022/10/24 09:33:39;;;;;;;12.50;2.60;;;;;;;16.02;90.64;100391.88;5085375;28;20447;-72
2022/10/24 09:36:10;;;;;;;12.75;2.80;;;;;;;16.00;93.39;100401.44;5092089;28;20101;-71
2022/10/24 09:38:38;;;;;;;14.32;3.20;;;;;;;16.03;91.67;100398.97;5074793;28;20032;-71
2022/10/24 09:41:15;;;;;;;11.95;2.72;;;;;;;16.02;90.20;100411.00;5074640;28;20356;-70
2022/10/24 09:43:43;;;;;;;11.48;2.65;;;;;;;16.02;91.42;100416.44;5080457;28;20052;-70
2022/10/24 09:46:18;;;;;;;12.60;2.72;;;;;;;16.07;94.75;100416.44;5080266;28;20029;-72
2022/10/24 09:49:13;;;;;;;12.70;2.88;;;;;;;16.08;93.23;100425.47;5078688;28;20024;-70
2022/10/24 09:51:46;;;;;;;11.05;2.58;;;;;;;16.11;91.82;100433.13;5079828;28;20135;-70
2022/10/24 09:54:17;;;;;;;14.10;2.92;;;;;;;16.10;91.73;100421.34;5094502;28;20038;-70
2022/10/24 09:56:44;;;;;;;16.73;3.17;;;;;;;16.11;94.05;100423.00;5092209;28;20451;-70
2022/10/24 09:59:40;;;;;;;16.05;3.10;;;;;;;16.18;95.34;100421.91;5090009;28;20024;-71
2022/10/24 10:02:18;;;;;;;9.82;2.50;;;;;;;16.16;93.91;100422.19;5088495;28;20040;-71
2022/10/24 10:04:45;;;;;;;13.00;2.78;;;;;;;16.24;86.59;100442.66;5073744;28;20028;-71
2022/10/24 10:07:24;;;;;;;10.25;2.22;;;;;;;16.19;88.48;100440.75;5088796;28;20029;-71
2022/10/24 10:09:53;;;;;;;13.82;2.75;;;;;;;16.19;89.73;100437.22;5074188;28;20410;-71
2022/10/24 10:12:35;;;;;;;11.07;2.42;;;;;;;16.13;90.83;100442.66;5076838;28;20028;-71
2022/10/24 10:15:15;;;;;;;10.93;2.20;;;;;;;16.09;88.62;100440.72;5084674;28;20039;-71
2022/10/24 10:17:49;;;;;;;13.38;3.15;;;;;;;15.99;91.20;100457.94;5090461;28;20073;-71
2022/10/24 10:20:28;;;;;;;13.65;2.63;;;;;;;16.02;91.48;100459.28;5077309;28;20543;-71
2022/10/24 10:22:54;;;;;;;13.82;2.67;;;;;;;16.05;90.46;100456.03;5077896;28;20040;-71
2022/10/24 10:25:30;;;;;;;9.20;2.42;;;;;;;16.09;92.29;100462.56;5084140;28;20034;-71
2022/10/24 10:27:57;;;;;;;13.65;2.55;;;;;;;16.18;92.51;100466.41;5092094;28;20502;-71
2022/10/24 10:30:23;;;;;;;16.17;3.35;;;;;;;16.26;89.75;100468.59;5093707;28;20063;-71
2022/10/24 10:33:17;;;;;;;11.27;2.70;;;;;;;16.37;90.67;100472.16;5092499;28;20052;-71
2022/10/24 10:36:10;;;;;;;14.63;3.42;;;;;;;16.42;90.60;100474.88;5090935;28;20062;-71
2022/10/24 10:38:48;;;;;;;11.80;2.83;;;;;;;16.38;90.92;100479.25;5093358;28;20129;-71
2022/10/24 10:41:47;;;;;;;10.23;2.53;;;;;;;16.38;89.43;100487.44;5075624;28;20028;-71
2022/10/24 10:44:29;;;;;;;12.35;2.63;;;;;;;16.32;88.04;100490.44;5072339;28;20028;-71
2022/10/24 10:47:05;;;;;;;11.82;2.40;;;;;;;16.24;93.10;100497.25;5072321;28;20028;-72
2022/10/24 10:49:40;;;;;;;12.95;2.60;;;;;;;16.05;100.00;100503.25;5076006;28;20069;-71
2022/10/24 10:52:08;;;;;;;8.80;2.25;;;;;;;15.77;100.00;100499.88;5073319;28;20047;-71
2022/10/24 10:54:53;;;;;;;10.98;2.30;;;;;;;15.61;100.00;100509.09;5074855;28;20032;-71
2022/10/24 10:57:29;;;;;;;11.20;2.40;;;;;;;15.34;100.00;100511.94;5092905;28;20455;-71
2022/10/24 11:00:06;;;;;;;7.68;2.05;;;;;;;15.28;100.00;100513.03;5093134;28;20024;-71
2022/10/24 11:02:50;;;;;;;11.10;2.30;;;;;;;15.05;100.00;100515.91;5075612;28;20055;-71
2022/10/24 11:05:18;;;;;;;11.73;2.85;;;;;;;14.95;100.00;100518.56;5078529;28;20073;-71
2022/10/24 11:07:59;;;;;;;12.23;2.22;;;;;;;14.94;100.00;100510.66;5091688;28;20028;-71
2022/10/24 11:10:32;;;;;;;12.93;2.40;;;;;;;14.93;100.00;100518.00;5091724;28;20016;-71
2022/10/24 11:13:02;;;;;;;9.20;2.35;;;;;;;14.97;100.00;100512.84;5093233;28;20095;-71
2022/10/24 11:15:36;;;;;;;13.90;2.90;;;;;;;15.10;100.00;100511.56;5091700;28;20028;-71
2022/10/24 11:18:21;;;;;;;11.43;2.58;;;;;;;15.23;100.00;100511.09;5093022;28;20352;-71
2022/10/24 11:20:54;;;;;;;11.60;2.50;;;;;;;15.36;100.00;100510.63;5090788;28;20051;-73
2022/10/24 11:23:29;;;;;;;11.38;2.75;;;;;;;15.46;100.00;100509.84;5091495;28;20077;-72
2022/10/24 11:26:02;;;;;;;13.63;2.88;;;;;;;15.59;100.00;100512.09;5058504;28;20052;-72
2022/10/24 11:28:35;;;;;;;10.25;2.30;;;;;;;15.70;100.00;100514.84;5052537;28;20029;-72